KCFJ

Crawfordsville Municipal Airport

Crawfordsville, Indiana, USA
METAR KCFJ 201515Z AUTO 19020G28KT 10SM SCT026 BKN065 OVC070 17/16 A3000 RMK AO2 LTG DSNT W T01720162
Observed Flight Rules
Feb-20 @ 15:15 UTC (5 hours ago) Visual Flight Rules
Wind Visibility Clouds
190° at 20 knots
 Gusting to 28 knots
10 miles
  • Scattered at 2,600' AGL
  • Broken at 6,500' AGL
  • Overcast at 7,000' AGL
Temperatures Readings
Current 17°C / 63°F
Dewpoint 16°C / 61°F
Humidity 94%
Altimeter 30" Hg
Pressure 1016 hPa
Elevation 244
METAR KCFJ 201515Z AUTO 19020G28KT 10SM SCT026 BKN065 OVC070 17/16 A3000 RMK AO2 LTG DSNT W T01720162
Observed Flight Rules
Feb-20 @ 15:15 UTC
(5 hours ago)
VFR
Wind Visibility
190° at 20 knots
 Gusting to 28 knots
10 miles
Clouds
  • Scattered at 2,600' AGL
  • Broken at 6,500' AGL
  • Overcast at 7,000' AGL
Temperature Dewpoint
17°C / 63°F 16°C / 61°F
Humidity Altimeter Pressure
94% 30" Hg 1016 hPa